x

North Huron - 32nm Northeast Of Alpena, Mi (45003) Wave Buoy

3:50am - Sat 1st Aug 2015 All times are CDT. -5 hours from GMT.

  • Sig Wave height 1.6ft
  • Swell Direction
  • Peak Period 5s
  • Average Period 3s
  • Wind
    13mph, 16mph gusts
  • Sea Temp 64°f
  • Air Temp 64°f
  • Sea Pressure 1008.7mb
  • North Huron - 32nm Northeast Of Alpena, Mi
  • North Huron - 32nm Northeast Of Alpena, Mi

More Historic Weather Station data

Upgrade to MSW Pro to gain access to the past 30 days of data for over 8000 Wavebouys and Weather Stations around the globe.

Join Pro

Comparision Forecast

View Surf forecast
   
Sat 08/01 3:50am 1.6ft 5s 3s 13 16 mph 1008.7mb 64f 64f
2:50am 1.3ft 5s 4s 13 16 mph 1008.6mb 64f 65f
1:50am 1.6ft 4s 4s 11 13 mph 1008.9mb 64f 65f
12:50am 2.5ft 4s 4s 11 13 mph 1009.1mb 64f 65f
Fri 07/31 11:50pm 3ft 4s 4s 18 20 mph 1009.1mb 64f 65f
10:50pm 2.5ft 4s 3s 20 22 mph 1009.1mb 64f 65f
9:50pm 2ft 4s 3s 16 20 mph 1009mb 64f 66f
8:50pm 2.5ft 4s 3s 16 18 mph 1008.5mb 64f 65f
7:50pm 2ft 4s 3s 13 16 mph 1008.2mb 64f 66f
6:50pm 1.3ft 4s 3s 13 18 mph 1007.6mb 65f 67f
5:50pm 1.6ft 4s 3s 13 16 mph 1007.4mb 65f 68f
4:50pm 1.3ft 4s 3s 16 18 mph 1007.2mb 65f 68f
3:50pm 1ft 4s 3s 16 18 mph 1007.3mb 65f 68f
2:50pm 1.3ft 4s 4s 4
mph
1007.5mb 66f 68f
1:50pm 1.3ft 4s 4s 7
mph
1007.7mb 65f 67f
12:50pm 1.3ft 4s 4s 7
mph
1007.7mb 65f 67f
11:50am 1.6ft 4s 4s 7
mph
1008.2mb 65f 67f
10:50am 1.6ft 4s 4s 9
mph
1008.1mb 64f 67f
9:50am 1.3ft 4s 3s 11
mph
1008.4mb 64f 66f
8:50am 1.3ft 4s 3s 9
mph
1008.5mb 64f 65f
7:50am 1.3ft 4s 3s 13 16 mph 1008.8mb 63f 66f
6:50am 1.3ft 4s 3s 13 16 mph 1009mb 63f 66f
5:50am 1.3ft 3s 3s 11 13 mph 1009mb 64f 65f
4:50am 1.6ft 3s 3s 16 18 mph 1009.1mb 64f 65f
3:50am 1.3ft 4s 3s 16 18 mph 1009.3mb 64f 65f
2:50am 1ft 4s 3s 16 18 mph 1009.4mb 64f 65f
1:50am 1.3ft 4s 3s 11 13 mph 1009.7mb 64f 65f
12:50am 1.3ft 4s 4s 11
mph
1010.3mb 65f 65f
Thu 07/30 11:50pm 1.6ft 5s 4s 9
mph
1010.6mb 65f 65f
10:50pm 1.6ft 5s 4s 7
mph
1010.8mb 65f 66f
9:50pm 2ft 5s 4s 4 7 mph 1011mb 65f 66f
8:50pm 2ft 5s 4s 9 11 mph 1010.8mb 65f 67f
7:50pm 2ft 5s 4s 13 16 mph 1010.4mb 65f 67f
6:50pm 2ft 5s 4s 9 11 mph 1010.2mb 65f 67f
5:50pm 2.5ft 5s 4s 13 16 mph 1009.9mb 65f 67f
4:50pm 2.5ft 6s 4s 11
mph
1009.7mb 65f 67f
3:50pm 3.5ft 5s 4s 11 13 mph 1009.5mb 65f 67f
2:50pm 3.5ft 5s 4s 11 16 mph 1009.4mb 64f 67f
1:50pm 4ft 5s 4s 16 18 mph 1009mb 64f 68f
12:50pm 3.5ft 4s 4s 20 22 mph 1008.5mb 65f 69f
11:50am 2.5ft 4s 3s 18 20 mph 1008.4mb 65f 69f
10:50am 2.5ft 4s 4s 13 16 mph 1008.3mb 65f 69f
9:50am 2.5ft 4s 4s 11
mph
1008.4mb 65f 68f
8:50am 2.5ft 4s 3s 16 20 mph 1008.6mb 65f 69f
7:50am 2.5ft 4s 3s 16 18 mph 1008.1mb 65f 68f
6:50am 1.3ft 4s 3s 16 18 mph 1007.9mb 65f 68f
5:50am 1.3ft 4s 3s 11 13 mph 1007.6mb 65f 67f
4:50am 1.3ft 4s 3s 13
mph
1007.5mb 65f 67f
3:50am 1.3ft 4s 4s 11
mph
1007.7mb 65f 67f
2:50am 1.6ft 5s 4s 9 11 mph 1008mb 65f 66f
1:50am 2ft 5s 4s 7
mph
1008.1mb 65f 67f
12:50am 2.5ft 5s 4s 4 7 mph 1008.6mb 65f 68f
Wed 07/29 11:50pm 2.5ft 5s 4s 11
mph
1008.4mb 65f 68f
10:50pm 3.5ft 5s 4s 13 16 mph 1007.8mb 65f 71f
9:50pm 2ft 4s 4s 11
mph
1008.1mb 65f 72f
8:50pm 2ft 5s 4s 11
mph
1007.9mb 65f 70f
7:50pm 2ft 4s 4s 7 11 mph 1007.6mb 65f 73f
6:50pm 2.5ft 4s 4s 4 7 mph 1007.7mb 65f 73f
5:50pm 2.5ft 4s 4s 4 7 mph 1007.3mb 65f 74f
4:50pm 2ft 4s 3s 7 9 mph 1007.5mb 65f 71f
3:50pm 2ft 4s 3s 16 18 mph 1007.1mb 65f 69f
2:50pm 2ft 4s 3s 18 20 mph 1007.6mb 65f 69f
1:50pm 2ft 3s 3s 18 20 mph 1008.3mb 65f 69f
12:50pm 1.3ft 3s 3s 18 20 mph 1009mb 66f 69f
11:50am 1ft 3s 3s 16 18 mph 1009.7mb 66f 69f
10:50am 0.7ft  -  3s 13 16 mph 1010.4mb 66f 69f
9:50am 0.7ft  -  3s 13
mph
1010.9mb 66f 69f
8:50am 0.7ft  -  3s 11 13 mph 1011.3mb 66f 70f
7:50am 0.3ft  -  3s 11 13 mph 1011.8mb 66f 69f
6:50am 0.3ft  -  2s 11 13 mph 1011.9mb 66f 69f
5:50am 0.3ft  -  2s 9 11 mph 1012mb 66f 69f
4:50am 0.3ft  -  3s 9 11 mph 1012.1mb 66f 69f
3:50am 0.3ft  -  3s 9
mph
1012mb 66f 69f
2:50am 0.3ft  -  3s 7 9 mph 1013mb 67f 68f
1:50am 0.3ft  -  2s 9
mph
1013.6mb 67f 69f
12:50am 0.3ft  -  3s 9 11 mph 1013.6mb 67f 70f
Tue 07/28 11:50pm 0.3ft  -  2s 9 11 mph 1014.2mb 67f 70f
10:50pm 0.3ft  -  2s 9 11 mph 1014.3mb 67f 70f
9:50pm 0.3ft  -  2s 9 11 mph 1013.9mb 67f 71f
8:50pm 0.3ft  -  2s 11
mph
1013.6mb 68f 72f
7:50pm 0.3ft  -  3s 11
mph
1013.5mb 69f 72f
6:50pm  -   -  3s 9
mph
1013.7mb 69f 72f
5:50pm 0.3ft  -  3s 9
mph
1013.8mb 70f 73f
4:50pm 0.3ft  -  3s 9
mph
1014.4mb 72f 74f
3:50pm  -   -  3s 7 9 mph 1014.9mb 73f 74f
2:50pm  -   -  3s 4
mph
1015.6mb 73f 74f
1:50pm  -   -  3s 7
mph
1015.6mb 72f 74f
12:50pm 0.3ft  -  3s 4 7 mph 1015.9mb 72f 74f
11:50am 0.3ft  -  3s 2
mph
1016.1mb 71f 73f
10:50am 0.3ft  -  3s 4
mph
1016.2mb 69f 71f